Time;durP1;ratioP1;P1;durP2;ratioP2;P2;SDS_P1;SDS_P2;PMS_P1;PMS_P2;Temp;Humidity;BMP_temperature;BMP_pressure;BME280_temperature;BME280_humidity;BME280_pressure;Samples;Min_cycle;Max_cycle;Signal;HPM_P1;HPM_P2
2022/01/06 00:00:04;;;;;;;12.73;2.03;;;4.20;99.90;;;;;;5073663;28;20062;-79
2022/01/06 00:02:30;;;;;;;12.15;1.88;;;4.30;99.90;;;;;;5090056;28;20047;-79
2022/01/06 00:04:56;;;;;;;10.45;1.30;;;4.30;99.90;;;;;;5086695;28;20399;-78
2022/01/06 00:07:21;;;;;;;15.30;2.45;;;4.30;99.90;;;;;;5119388;27;20051;-79
2022/01/06 00:09:48;;;;;;;22.02;2.40;;;4.20;99.90;;;;;;5088196;28;20482;-78
2022/01/06 00:12:17;;;;;;;19.42;2.13;;;4.20;99.90;;;;;;5127701;27;20063;-78
2022/01/06 00:17:36;;;;;;;15.45;3.90;;;4.10;99.90;;;;;;5089672;28;20037;-79
2022/01/06 00:25:31;;;;;;;20.73;3.40;;;4.10;99.90;;;;;;5087133;28;20067;-79
2022/01/06 00:27:56;;;;;;;23.00;3.17;;;4.20;99.90;;;;;;5087126;28;20068;-78
2022/01/06 00:30:22;;;;;;;14.52;2.83;;;4.30;99.90;;;;;;5087948;28;20032;-78
2022/01/06 00:32:47;;;;;;;16.73;2.83;;;4.20;99.90;;;;;;5088256;28;20040;-78
2022/01/06 00:35:13;;;;;;;15.70;3.13;;;4.30;99.90;;;;;;5090229;28;20032;-78
2022/01/06 00:37:39;;;;;;;21.08;2.97;;;4.30;99.90;;;;;;5084182;28;20032;-78
2022/01/06 00:40:05;;;;;;;11.07;2.33;;;4.40;99.90;;;;;;5088735;28;20130;-79
2022/01/06 00:42:31;;;;;;;16.23;2.40;;;4.30;99.90;;;;;;5088055;28;20036;-78
2022/01/06 00:44:57;;;;;;;17.50;2.88;;;4.30;99.90;;;;;;5088818;28;20032;-78
2022/01/06 00:47:23;;;;;;;17.67;2.28;;;4.20;99.90;;;;;;5085997;28;20052;-79
2022/01/06 00:49:49;;;;;;;17.55;2.72;;;4.20;99.90;;;;;;5092596;28;20062;-78
2022/01/06 00:52:14;;;;;;;12.65;2.35;;;4.20;99.90;;;;;;5084309;28;20766;-78
2022/01/06 00:54:40;;;;;;;18.38;2.63;;;4.10;99.90;;;;;;5085798;28;20089;-78
2022/01/06 00:57:06;;;;;;;22.20;4.75;;;4.10;99.90;;;;;;5089762;28;20048;-78
2022/01/06 00:59:31;;;;;;;21.23;2.13;;;4.00;99.90;;;;;;5084647;28;20453;-78
2022/01/06 01:01:57;;;;;;;15.25;2.17;;;3.90;99.90;;;;;;5088863;28;20138;-78
2022/01/06 01:04:22;;;;;;;19.75;3.38;;;3.90;99.90;;;;;;5083662;28;20044;-78
2022/01/06 01:06:48;;;;;;;20.63;2.80;;;3.90;99.90;;;;;;5088456;28;20045;-78
2022/01/06 01:09:14;;;;;;;14.90;2.03;;;3.80;99.90;;;;;;5089104;28;20044;-78
2022/01/06 01:11:40;;;;;;;22.38;3.17;;;3.70;99.90;;;;;;5091506;28;20084;-79
2022/01/06 01:16:55;;;;;;;21.83;2.53;;;3.60;99.90;;;;;;5085955;28;20059;-78
2022/01/06 01:19:22;;;;;;;20.42;2.75;;;3.60;99.90;;;;;;5085282;28;20689;-78
2022/01/06 01:21:48;;;;;;;21.92;3.78;;;3.50;99.90;;;;;;5074587;28;20040;-78
2022/01/06 01:24:14;;;;;;;21.67;3.15;;;3.50;99.90;;;;;;5082740;28;20044;-78
2022/01/06 01:26:40;;;;;;;19.23;2.13;;;3.50;99.90;;;;;;5084572;28;20483;-78
2022/01/06 01:29:13;;;;;;;18.88;2.20;;;3.50;99.90;;;;;;5086348;28;20057;-78
2022/01/06 01:31:44;;;;;;;17.77;2.58;;;3.60;99.90;;;;;;5082345;28;20681;-78
2022/01/06 01:34:10;;;;;;;24.10;2.55;;;3.60;99.90;;;;;;5087634;28;20036;-78
2022/01/06 01:36:36;;;;;;;19.40;3.63;;;3.50;99.90;;;;;;5089043;28;20457;-78
2022/01/06 01:39:03;;;;;;;18.20;2.72;;;3.60;99.90;;;;;;5081116;28;20055;-78
2022/01/06 01:41:28;;;;;;;19.83;2.50;;;3.60;99.90;;;;;;5081978;28;20056;-78
2022/01/06 01:43:55;;;;;;;22.35;3.55;;;3.50;99.90;;;;;;5082669;28;20821;-78
2022/01/06 01:46:28;;;;;;;26.27;3.55;;;3.50;99.90;;;;;;5081891;28;20039;-78
2022/01/06 01:49:47;;;;;;;23.95;4.45;;;3.40;99.90;;;;;;5087672;28;20900;-78
2022/01/06 01:51:44;;;;;;;17.30;3.22;;;3.40;99.90;;;;;;5079617;28;20113;-78
2022/01/06 01:54:10;;;;;;;19.95;4.05;;;3.40;99.90;;;;;;5085848;28;20048;-78
2022/01/06 01:56:37;;;;;;;22.38;3.40;;;3.40;99.90;;;;;;5087979;28;20478;-77
2022/01/06 01:59:03;;;;;;;21.38;2.30;;;3.50;99.90;;;;;;5088503;28;20509;-78
2022/01/06 02:01:28;;;;;;;16.65;2.50;;;3.40;99.90;;;;;;5086515;28;20039;-77
2022/01/06 02:03:54;;;;;;;27.63;4.28;;;3.40;99.90;;;;;;5086967;28;20051;-78
2022/01/06 02:06:20;;;;;;;22.10;3.22;;;3.50;99.90;;;;;;5087663;28;20087;-78
2022/01/06 02:08:46;;;;;;;20.30;2.55;;;3.50;99.90;;;;;;5085831;28;20410;-78
2022/01/06 02:11:12;;;;;;;18.38;2.60;;;3.50;99.90;;;;;;5088922;28;20040;-78
2022/01/06 02:13:55;;;;;;;28.48;3.90;;;3.50;99.90;;;;;;5081305;28;20033;-78
2022/01/06 02:16:25;;;;;;;19.58;3.03;;;3.50;99.90;;;;;;5084860;28;20028;-78
2022/01/06 02:18:52;;;;;;;16.75;2.80;;;3.50;99.90;;;;;;5085381;28;20364;-77
2022/01/06 02:21:18;;;;;;;18.25;2.33;;;3.50;99.90;;;;;;5086028;28;20098;-78
2022/01/06 02:23:44;;;;;;;19.75;2.88;;;3.50;99.90;;;;;;5087043;28;20043;-78
2022/01/06 02:26:10;;;;;;;25.20;3.45;;;3.50;99.90;;;;;;5084999;28;20390;-78
2022/01/06 02:28:35;;;;;;;28.00;3.33;;;3.40;99.90;;;;;;5086455;28;20399;-78
2022/01/06 02:31:01;;;;;;;21.30;3.50;;;3.50;99.90;;;;;;5090990;28;20078;-78
2022/01/06 02:33:27;;;;;;;15.52;3.05;;;3.50;99.90;;;;;;5086210;28;20131;-78
2022/01/06 02:35:54;;;;;;;16.10;2.80;;;3.40;99.90;;;;;;5082737;28;20040;-78
2022/01/06 02:38:20;;;;;;;16.60;2.97;;;3.40;99.90;;;;;;5118744;27;20063;-78
2022/01/06 02:40:47;;;;;;;22.38;3.63;;;3.40;99.90;;;;;;5084106;28;20115;-78
2022/01/06 02:43:16;;;;;;;20.30;3.10;;;3.30;99.90;;;;;;5085117;28;20039;-78
2022/01/06 02:45:42;;;;;;;20.10;2.55;;;3.40;99.90;;;;;;5086556;28;20047;-77
2022/01/06 02:48:11;;;;;;;14.10;2.17;;;3.40;99.90;;;;;;5111314;27;20044;-78
2022/01/06 02:50:39;;;;;;;20.13;3.05;;;3.30;99.90;;;;;;5090374;28;20047;-78
2022/01/06 02:53:09;;;;;;;18.88;3.17;;;3.30;99.90;;;;;;5116912;27;20041;-77
2022/01/06 02:55:37;;;;;;;14.30;2.05;;;3.30;99.90;;;;;;5113666;27;20039;-78
2022/01/06 02:58:03;;;;;;;22.55;2.47;;;3.20;99.90;;;;;;5085613;28;20032;-78
2022/01/06 03:00:28;;;;;;;18.42;2.28;;;3.40;99.90;;;;;;5089553;28;20375;-77
2022/01/06 03:02:54;;;;;;;20.17;2.67;;;3.20;99.90;;;;;;5083277;28;20044;-78
2022/01/06 03:05:20;;;;;;;17.63;2.78;;;3.20;99.90;;;;;;5083224;28;20608;-78
2022/01/06 03:07:46;;;;;;;22.67;3.15;;;3.30;99.90;;;;;;5086071;28;20040;-78
2022/01/06 03:10:15;;;;;;;17.33;2.65;;;3.20;99.90;;;;;;5087037;28;20038;-78
2022/01/06 03:12:45;;;;;;;17.58;2.30;;;3.20;99.90;;;;;;5081183;28;20055;-78
2022/01/06 03:15:20;;;;;;;20.60;2.88;;;3.10;99.90;;;;;;5085310;28;20131;-78
2022/01/06 03:17:49;;;;;;;21.83;3.20;;;3.10;99.90;;;;;;5083235;28;20118;-77
2022/01/06 03:20:17;;;;;;;19.70;1.77;;;3.20;99.90;;;;;;5083018;28;20536;-78
2022/01/06 03:22:43;;;;;;;21.77;2.08;;;3.10;99.90;;;;;;5081664;28;20040;-77
2022/01/06 03:25:10;;;;;;;18.30;2.70;;;3.10;99.90;;;;;;5081170;28;20100;-78
2022/01/06 03:27:37;;;;;;;21.98;2.75;;;3.00;99.90;;;;;;5087353;28;20047;-78
2022/01/06 03:30:04;;;;;;;15.65;1.75;;;3.10;99.90;;;;;;5086708;28;20064;-77
2022/01/06 03:32:30;;;;;;;17.27;1.75;;;3.00;99.90;;;;;;5086875;28;20059;-77
2022/01/06 03:34:55;;;;;;;14.95;2.15;;;2.90;99.90;;;;;;5086952;28;20040;-78
2022/01/06 03:37:21;;;;;;;15.65;2.03;;;2.90;99.90;;;;;;5083380;28;20025;-78
2022/01/06 03:39:47;;;;;;;17.10;2.58;;;2.90;99.90;;;;;;5083424;28;20546;-78
2022/01/06 03:42:13;;;;;;;13.40;2.47;;;2.80;99.90;;;;;;5080748;28;20401;-78
2022/01/06 03:44:38;;;;;;;17.05;2.28;;;2.90;99.90;;;;;;5083025;28;20051;-78
2022/01/06 03:47:04;;;;;;;14.18;2.72;;;2.90;99.90;;;;;;5082988;28;20036;-78
2022/01/06 03:49:30;;;;;;;18.98;2.95;;;2.80;99.90;;;;;;5084291;28;20050;-78
2022/01/06 03:51:56;;;;;;;11.05;1.60;;;2.80;99.90;;;;;;5087657;28;20035;-77
2022/01/06 03:54:22;;;;;;;22.40;3.50;;;3.00;99.90;;;;;;5085982;28;20047;-77
2022/01/06 03:56:48;;;;;;;17.75;1.88;;;2.80;99.90;;;;;;5085987;28;20055;-77
2022/01/06 03:59:16;;;;;;;18.23;2.85;;;2.80;99.90;;;;;;5082963;28;20036;-77
2022/01/06 04:01:43;;;;;;;17.13;1.77;;;2.80;99.90;;;;;;5082869;28;20036;-77
2022/01/06 04:04:10;;;;;;;11.07;1.55;;;2.70;99.90;;;;;;5086588;28;20048;-77
2022/01/06 04:06:35;;;;;;;15.68;2.60;;;2.70;99.90;;;;;;5087589;28;20051;-77
2022/01/06 04:09:01;;;;;;;13.23;1.73;;;2.70;99.90;;;;;;5084175;28;20043;-77
2022/01/06 04:11:27;;;;;;;10.45;2.10;;;2.70;99.90;;;;;;5069182;28;20111;-77
2022/01/06 04:13:52;;;;;;;20.55;2.05;;;2.60;99.90;;;;;;5084907;28;20051;-77
2022/01/06 04:16:18;;;;;;;15.23;2.20;;;2.60;99.90;;;;;;5087390;28;20398;-77
2022/01/06 04:18:45;;;;;;;13.85;1.45;;;2.60;99.90;;;;;;5086490;28;20071;-77
2022/01/06 04:21:11;;;;;;;15.75;1.55;;;2.60;99.90;;;;;;5083247;28;20044;-77
2022/01/06 04:23:37;;;;;;;14.80;1.65;;;2.80;99.90;;;;;;5084069;28;20411;-77
2022/01/06 04:26:03;;;;;;;13.45;1.63;;;2.50;99.90;;;;;;5086647;28;20047;-77
2022/01/06 04:28:29;;;;;;;13.55;1.75;;;2.60;99.90;;;;;;5084065;28;20047;-77
2022/01/06 04:30:55;;;;;;;21.20;2.35;;;2.60;99.90;;;;;;5082291;28;20045;-77
2022/01/06 04:33:20;;;;;;;11.70;1.30;;;2.60;99.90;;;;;;5081836;28;20105;-77
2022/01/06 04:35:46;;;;;;;15.45;2.72;;;2.60;99.90;;;;;;5085656;28;20043;-77
2022/01/06 04:38:11;;;;;;;15.88;2.00;;;2.60;99.90;;;;;;5085531;28;20035;-77
2022/01/06 04:40:37;;;;;;;12.35;1.88;;;2.60;99.90;;;;;;5085381;28;20035;-77
2022/01/06 04:43:04;;;;;;;16.33;3.05;;;2.50;99.90;;;;;;5080191;28;20055;-77
2022/01/06 04:45:29;;;;;;;11.35;1.83;;;2.60;99.90;;;;;;5064681;28;20139;-77
2022/01/06 04:47:55;;;;;;;16.00;1.48;;;2.50;99.90;;;;;;5085623;28;20434;-77
2022/01/06 04:50:20;;;;;;;14.05;1.80;;;2.50;99.90;;;;;;5086718;28;20093;-77
2022/01/06 04:52:46;;;;;;;15.35;1.85;;;2.40;99.90;;;;;;5086223;28;20041;-77
2022/01/06 04:55:11;;;;;;;10.82;1.65;;;2.40;99.90;;;;;;5087759;28;20070;-77
2022/01/06 04:57:37;;;;;;;13.45;1.73;;;2.40;99.90;;;;;;5085132;28;20043;-76
2022/01/06 05:00:07;;;;;;;13.63;2.00;;;2.40;99.90;;;;;;5122899;27;20036;-75
2022/01/06 05:02:33;;;;;;;8.05;1.70;;;2.40;99.90;;;;;;5085673;28;20052;-75
2022/01/06 05:04:58;;;;;;;10.15;1.73;;;2.30;99.90;;;;;;5089536;28;20066;-75
2022/01/06 05:07:24;;;;;;;10.57;1.15;;;2.30;99.90;;;;;;5088369;28;20109;-75
2022/01/06 05:09:50;;;;;;;12.50;1.17;;;2.30;99.90;;;;;;5082033;28;20036;-75
2022/01/06 05:12:16;;;;;;;13.80;0.90;;;2.30;99.90;;;;;;5083785;28;20093;-75
2022/01/06 05:14:42;;;;;;;15.20;2.35;;;2.20;99.90;;;;;;5083179;28;20029;-75
2022/01/06 05:17:08;;;;;;;13.55;1.58;;;2.30;99.90;;;;;;5117660;27;20044;-75
2022/01/06 05:19:33;;;;;;;13.88;1.63;;;2.20;99.90;;;;;;5082877;28;20131;-75
2022/01/06 05:22:00;;;;;;;17.15;2.60;;;2.10;99.90;;;;;;5115892;27;20136;-74
2022/01/06 05:24:25;;;;;;;11.85;1.80;;;2.10;99.90;;;;;;5081653;28;20087;-75
2022/01/06 05:26:54;;;;;;;15.20;1.80;;;2.10;99.90;;;;;;5082197;28;20202;-75
2022/01/06 05:29:20;;;;;;;15.15;1.90;;;2.10;99.90;;;;;;5117667;27;20382;-74
2022/01/06 05:31:46;;;;;;;16.33;1.67;;;2.10;99.90;;;;;;5086663;28;20035;-75
2022/01/06 05:34:11;;;;;;;20.38;2.40;;;2.00;99.90;;;;;;5088726;28;20559;-74
2022/01/06 05:36:38;;;;;;;15.07;2.03;;;2.00;99.90;;;;;;5083906;28;20023;-75
2022/01/06 05:39:04;;;;;;;23.20;2.33;;;2.00;99.90;;;;;;5085486;28;20047;-75
2022/01/06 05:41:29;;;;;;;21.73;2.35;;;2.40;99.90;;;;;;5086950;28;20040;-75
2022/01/06 05:43:55;;;;;;;19.58;2.08;;;2.00;99.90;;;;;;5082305;28;20044;-75
2022/01/06 05:46:21;;;;;;;8.70;1.42;;;2.10;99.90;;;;;;5080532;28;20085;-75
2022/01/06 05:48:47;;;;;;;13.98;2.17;;;2.10;99.90;;;;;;5083396;28;20036;-75
2022/01/06 05:51:13;;;;;;;15.85;1.83;;;2.00;99.90;;;;;;5081860;28;20387;-75
2022/01/06 05:53:39;;;;;;;19.42;2.17;;;2.00;99.90;;;;;;5088177;28;20044;-74
2022/01/06 05:56:05;;;;;;;18.65;2.45;;;2.00;99.90;;;;;;5085467;28;20036;-75
2022/01/06 05:58:31;;;;;;;16.92;2.85;;;2.10;99.90;;;;;;5086869;28;20634;-75
2022/01/06 06:00:57;;;;;;;14.48;2.20;;;1.90;99.90;;;;;;5082241;28;20116;-75
2022/01/06 06:03:27;;;;;;;15.15;2.42;;;1.90;99.90;;;;;;5080889;28;20059;-75
2022/01/06 06:05:56;;;;;;;11.27;1.50;;;2.00;99.90;;;;;;5086381;28;20050;-75
2022/01/06 06:08:22;;;;;;;10.32;2.00;;;1.90;99.90;;;;;;5085288;28;20127;-75
2022/01/06 06:10:48;;;;;;;9.45;1.38;;;1.80;99.90;;;;;;5084496;28;20150;-75
2022/01/06 06:13:14;;;;;;;18.55;1.63;;;1.80;99.90;;;;;;5084506;28;20046;-75
2022/01/06 06:15:40;;;;;;;15.95;1.77;;;1.80;99.90;;;;;;5090589;28;20036;-74
2022/01/06 06:18:07;;;;;;;16.55;2.63;;;1.80;99.90;;;;;;5088725;28;20051;-74
2022/01/06 06:20:33;;;;;;;20.10;2.05;;;1.70;99.90;;;;;;5085393;28;20777;-75
2022/01/06 06:22:59;;;;;;;17.13;2.53;;;1.70;99.90;;;;;;5082633;28;20134;-74
2022/01/06 06:25:25;;;;;;;19.02;3.47;;;1.70;99.90;;;;;;5113793;27;20038;-75
2022/01/06 06:27:51;;;;;;;21.70;2.45;;;1.70;99.90;;;;;;5085456;28;20491;-75
2022/01/06 06:30:18;;;;;;;18.45;2.72;;;1.70;99.90;;;;;;5082579;28;20583;-74
2022/01/06 06:32:43;;;;;;;22.77;3.53;;;1.70;99.90;;;;;;5081438;28;20056;-74
2022/01/06 06:35:09;;;;;;;15.60;2.70;;;1.70;99.90;;;;;;5087317;28;20048;-75
2022/01/06 06:37:35;;;;;;;13.70;1.80;;;1.80;99.90;;;;;;5082337;28;20048;-75
2022/01/06 06:40:01;;;;;;;19.52;2.50;;;1.70;99.90;;;;;;5084108;28;20044;-74
2022/01/06 06:42:28;;;;;;;13.63;2.17;;;1.80;99.90;;;;;;5088117;28;20399;-74
2022/01/06 06:44:54;;;;;;;15.93;2.22;;;1.70;99.90;;;;;;5088365;28;20090;-74
2022/01/06 06:47:20;;;;;;;12.20;1.55;;;1.70;99.90;;;;;;5084565;28;20122;-74
2022/01/06 06:49:46;;;;;;;9.57;1.25;;;1.70;99.90;;;;;;5077936;28;20039;-75
2022/01/06 06:52:11;;;;;;;19.02;2.53;;;1.60;99.90;;;;;;5112325;27;20040;-75
2022/01/06 06:54:37;;;;;;;19.45;1.70;;;1.60;99.90;;;;;;5081319;28;20043;-74
2022/01/06 06:57:03;;;;;;;18.70;2.10;;;1.50;99.90;;;;;;5080389;28;20032;-74
2022/01/06 06:59:29;;;;;;;23.98;2.95;;;1.50;99.90;;;;;;5084167;28;20044;-74
2022/01/06 07:01:54;;;;;;;15.60;2.58;;;1.50;99.90;;;;;;5087045;28;20666;-74
2022/01/06 07:04:20;;;;;;;18.88;1.60;;;1.50;99.90;;;;;;5086088;28;20033;-74
2022/01/06 07:06:46;;;;;;;14.05;1.65;;;1.50;99.90;;;;;;5087656;28;20046;-74
2022/01/06 07:09:11;;;;;;;10.90;1.90;;;1.50;99.90;;;;;;5083682;28;21998;-74
2022/01/06 07:11:37;;;;;;;20.38;2.08;;;1.40;99.90;;;;;;5086076;28;20044;-74
2022/01/06 07:14:12;;;;;;;15.32;2.33;;;1.40;99.90;;;;;;5088826;28;20368;-74
2022/01/06 07:16:38;;;;;;;16.80;1.87;;;1.40;99.90;;;;;;5088822;28;20510;-74
2022/01/06 07:19:03;;;;;;;17.75;2.08;;;1.40;99.90;;;;;;5071524;28;20032;-74
2022/01/06 07:21:30;;;;;;;19.08;2.58;;;1.30;99.90;;;;;;5085108;28;20771;-74
2022/01/06 07:23:56;;;;;;;10.60;1.73;;;1.30;99.90;;;;;;5083520;28;20119;-74
2022/01/06 07:26:21;;;;;;;18.65;1.90;;;1.40;99.90;;;;;;5083943;28;20040;-74
2022/01/06 07:28:47;;;;;;;17.48;1.95;;;1.40;99.90;;;;;;5081938;28;20063;-74
2022/01/06 07:31:13;;;;;;;19.83;1.75;;;1.40;99.90;;;;;;5084190;28;20040;-74
2022/01/06 07:33:39;;;;;;;17.55;2.08;;;1.30;99.90;;;;;;5109057;27;20565;-76
2022/01/06 07:36:05;;;;;;;19.10;2.08;;;1.40;99.90;;;;;;5087405;28;20040;-76
2022/01/06 07:38:31;;;;;;;22.77;2.17;;;1.40;99.90;;;;;;5077927;28;20033;-76
2022/01/06 07:40:57;;;;;;;21.85;2.50;;;1.40;99.90;;;;;;5085159;28;20044;-76
2022/01/06 07:43:23;;;;;;;24.42;3.15;;;1.30;99.90;;;;;;5075048;28;20043;-77
2022/01/06 07:45:49;;;;;;;18.02;2.22;;;1.40;99.90;;;;;;5077132;28;20043;-76
2022/01/06 07:48:17;;;;;;;18.33;1.83;;;1.30;99.90;;;;;;5081061;28;20097;-76
2022/01/06 07:50:45;;;;;;;18.95;2.40;;;1.40;99.90;;;;;;5076348;28;20305;-76
2022/01/06 07:53:11;;;;;;;11.38;2.47;;;1.30;99.90;;;;;;5076221;28;20044;-76
2022/01/06 07:55:37;;;;;;;18.02;2.00;;;1.40;99.90;;;;;;5074888;28;20032;-76
2022/01/06 07:58:03;;;;;;;19.45;1.52;;;1.30;99.90;;;;;;5077678;28;20040;-76
2022/01/06 08:00:30;;;;;;;14.02;1.75;;;1.30;99.90;;;;;;5056907;28;20131;-76
2022/01/06 08:02:56;;;;;;;14.18;2.25;;;1.30;99.90;;;;;;5075082;28;20090;-76
2022/01/06 08:05:25;;;;;;;15.02;1.88;;;1.30;99.90;;;;;;5077440;28;20044;-76
2022/01/06 08:07:51;;;;;;;17.63;2.83;;;1.30;99.90;;;;;;5072638;28;20525;-76
2022/01/06 08:10:17;;;;;;;14.68;2.83;;;1.30;99.90;;;;;;5076855;28;20032;-76
2022/01/06 08:12:42;;;;;;;18.73;2.88;;;1.20;99.90;;;;;;5082473;28;20551;-76
2022/01/06 08:15:09;;;;;;;16.85;3.67;;;1.10;99.90;;;;;;5083686;28;20044;-76
2022/01/06 08:17:36;;;;;;;17.55;1.83;;;1.20;99.90;;;;;;5074855;28;20040;-76
2022/01/06 08:20:07;;;;;;;18.42;2.40;;;1.10;99.90;;;;;;5081689;28;20044;-76
2022/01/06 08:22:33;;;;;;;24.15;2.35;;;1.20;99.90;;;;;;5074222;28;20048;-76
2022/01/06 08:24:58;;;;;;;22.92;3.85;;;1.20;99.90;;;;;;5079076;28;20040;-76
2022/01/06 08:27:25;;;;;;;18.35;2.65;;;1.20;99.90;;;;;;5080858;28;20040;-76
2022/01/06 08:29:54;;;;;;;17.67;2.08;;;1.30;99.90;;;;;;5082033;28;20360;-76
2022/01/06 08:32:20;;;;;;;21.52;2.65;;;1.30;99.90;;;;;;5079407;28;20028;-76
2022/01/06 08:34:46;;;;;;;24.65;3.30;;;1.20;99.90;;;;;;5079095;28;20048;-76
2022/01/06 08:37:12;;;;;;;15.63;2.00;;;1.30;99.90;;;;;;5109829;27;20040;-76
2022/01/06 08:39:38;;;;;;;20.42;1.92;;;1.30;99.90;;;;;;5076423;28;20079;-76
2022/01/06 08:42:04;;;;;;;15.90;2.22;;;1.40;99.90;;;;;;5077629;28;20140;-76
2022/01/06 08:44:30;;;;;;;18.95;2.20;;;1.40;99.90;;;;;;5079353;28;20501;-76
2022/01/06 08:46:59;;;;;;;15.55;2.40;;;1.40;99.90;;;;;;5082387;28;20049;-76
2022/01/06 08:49:25;;;;;;;22.95;3.40;;;1.40;99.90;;;;;;5080607;28;20052;-76
2022/01/06 08:51:51;;;;;;;17.25;2.80;;;1.50;99.90;;;;;;5079534;28;20552;-76
2022/01/06 08:54:16;;;;;;;17.52;2.83;;;1.50;99.90;;;;;;5076893;28;20378;-76
2022/01/06 08:56:42;;;;;;;16.75;2.60;;;1.50;99.90;;;;;;5074835;28;20047;-76
2022/01/06 08:59:07;;;;;;;19.90;2.75;;;1.60;99.90;;;;;;5079065;28;20454;-76
2022/01/06 09:01:33;;;;;;;23.75;2.72;;;1.70;99.90;;;;;;5082083;28;20055;-76
2022/01/06 09:03:58;;;;;;;18.30;2.53;;;1.70;99.90;;;;;;5078775;28;20570;-76
2022/01/06 09:06:24;;;;;;;15.48;2.45;;;1.70;99.90;;;;;;5083036;28;20104;-78
2022/01/06 09:08:50;;;;;;;15.13;2.45;;;1.90;99.90;;;;;;5107976;27;20048;-78
2022/01/06 09:11:16;;;;;;;17.13;2.35;;;2.00;99.90;;;;;;5115050;27;20194;-75
2022/01/06 09:13:42;;;;;;;19.08;3.25;;;2.00;99.90;;;;;;5076958;28;20721;-75
2022/01/06 09:16:08;;;;;;;27.25;3.20;;;2.10;99.90;;;;;;5079646;28;20048;-76
2022/01/06 09:18:39;;;;;;;15.35;3.17;;;2.20;99.90;;;;;;5080144;28;20186;-75
2022/01/06 09:21:05;;;;;;;29.15;3.75;;;2.20;99.90;;;;;;5084975;28;20043;-75
2022/01/06 09:23:32;;;;;;;22.77;3.95;;;2.20;99.90;;;;;;5080095;28;20467;-75
2022/01/06 09:25:58;;;;;;;21.85;2.53;;;2.30;99.90;;;;;;5081644;28;20135;-76
2022/01/06 09:28:23;;;;;;;18.60;3.28;;;2.40;99.90;;;;;;5082402;28;20188;-75
2022/01/06 09:30:52;;;;;;;18.40;2.80;;;2.40;99.90;;;;;;5080086;28;20055;-75
2022/01/06 09:33:22;;;;;;;17.63;2.58;;;2.50;99.90;;;;;;5076406;28;20115;-75
2022/01/06 09:35:49;;;;;;;19.73;2.47;;;2.50;99.90;;;;;;5081267;28;20047;-75
2022/01/06 09:38:16;;;;;;;27.58;4.82;;;2.50;99.90;;;;;;5079651;28;20578;-75
2022/01/06 09:40:44;;;;;;;13.70;2.53;;;2.50;99.90;;;;;;5079290;28;20035;-75
2022/01/06 09:43:13;;;;;;;25.48;2.92;;;2.60;99.90;;;;;;5081959;28;20432;-75
2022/01/06 09:45:41;;;;;;;20.85;3.38;;;2.60;99.90;;;;;;5112752;27;20047;-75
2022/01/06 09:48:08;;;;;;;24.55;3.55;;;2.60;99.90;;;;;;5082895;28;20028;-75
2022/01/06 09:50:40;;;;;;;21.85;3.10;;;2.60;99.90;;;;;;5082633;28;20040;-76
2022/01/06 09:53:06;;;;;;;21.83;2.83;;;2.90;99.90;;;;;;5112859;27;20506;-75
2022/01/06 09:55:31;;;;;;;24.88;3.60;;;2.70;99.90;;;;;;5076530;28;20101;-75
2022/01/06 09:58:00;;;;;;;25.30;3.63;;;2.70;99.90;;;;;;5094858;27;20067;-75
2022/01/06 10:00:29;;;;;;;21.10;2.90;;;2.80;99.90;;;;;;5080708;28;20093;-75
2022/01/06 10:02:57;;;;;;;20.60;3.15;;;2.80;99.90;;;;;;5111649;27;20039;-76
2022/01/06 10:05:23;;;;;;;44.47;4.60;;;2.80;99.90;;;;;;5112354;27;20067;-75
2022/01/06 10:07:49;;;;;;;19.33;3.17;;;2.90;99.90;;;;;;5081138;28;20047;-75
2022/01/06 10:10:15;;;;;;;21.35;2.92;;;3.00;99.90;;;;;;5079888;28;20051;-75
2022/01/06 10:12:42;;;;;;;21.33;3.05;;;3.10;99.90;;;;;;5057939;28;20472;-75
2022/01/06 10:15:22;;;;;;;21.27;3.28;;;3.20;99.90;;;;;;5080587;28;20495;-76
2022/01/06 10:17:48;;;;;;;19.35;3.20;;;3.20;99.90;;;;;;5076632;28;20058;-76
2022/01/06 10:20:20;;;;;;;23.85;4.20;;;3.40;99.90;;;;;;5077073;28;20071;-76
2022/01/06 10:22:51;;;;;;;22.50;3.35;;;3.60;99.90;;;;;;5080461;28;20046;-76
2022/01/06 10:25:19;;;;;;;19.92;3.28;;;4.00;99.90;;;;;;5079064;28;20048;-76
2022/01/06 10:27:46;;;;;;;25.15;4.20;;;4.20;99.90;;;;;;5078783;28;20074;-75
2022/01/06 10:30:13;;;;;;;17.88;3.22;;;4.30;99.90;;;;;;5081325;28;20394;-76
2022/01/06 10:32:39;;;;;;;14.23;3.28;;;4.50;99.90;;;;;;5078085;28;20135;-76
2022/01/06 10:35:07;;;;;;;18.70;2.97;;;4.60;99.90;;;;;;5080810;28;20063;-76
2022/01/06 10:37:35;;;;;;;18.20;3.05;;;4.70;99.90;;;;;;5079132;28;20024;-76
2022/01/06 10:40:03;;;;;;;13.60;2.67;;;4.90;99.90;;;;;;5077848;28;20044;-76
2022/01/06 10:42:31;;;;;;;21.25;3.08;;;5.00;99.90;;;;;;5074589;28;20814;-75
2022/01/06 10:45:04;;;;;;;17.05;2.42;;;5.10;99.90;;;;;;5077050;28;20063;-76
2022/01/06 10:47:34;;;;;;;17.20;2.90;;;5.20;99.90;;;;;;5080712;28;20043;-76
2022/01/06 10:50:20;;;;;;;18.10;2.97;;;5.30;99.90;;;;;;5075948;28;20071;-76
2022/01/06 10:52:48;;;;;;;15.02;2.47;;;5.40;99.90;;;;;;5075879;28;20044;-76
2022/01/06 10:55:14;;;;;;;20.05;2.78;;;5.50;99.90;;;;;;5110215;27;20051;-76
2022/01/06 10:58:02;;;;;;;25.95;3.30;;;5.60;99.90;;;;;;5079721;28;20478;-76
2022/01/06 11:00:36;;;;;;;10.90;2.42;;;5.70;99.90;;;;;;5077516;28;20028;-76
2022/01/06 11:03:14;;;;;;;23.33;3.72;;;5.90;99.90;;;;;;5078832;28;20137;-76
2022/01/06 11:05:41;;;;;;;13.65;2.55;;;6.00;99.90;;;;;;5076522;28;20032;-77
2022/01/06 11:08:08;;;;;;;13.13;2.78;;;6.20;99.90;;;;;;5078077;28;20141;-76
2022/01/06 11:10:36;;;;;;;15.27;2.90;;;6.30;99.90;;;;;;5078225;28;20108;-76
2022/01/06 11:13:06;;;;;;;17.13;2.80;;;6.40;99.90;;;;;;5078330;28;20382;-76
2022/01/06 11:15:32;;;;;;;16.25;2.30;;;6.50;99.90;;;;;;5075874;28;20067;-76
2022/01/06 11:18:00;;;;;;;18.40;3.47;;;6.60;99.90;;;;;;5077771;28;20040;-76
2022/01/06 11:20:28;;;;;;;14.63;3.08;;;6.90;99.90;;;;;;5079772;28;20085;-77
2022/01/06 11:22:56;;;;;;;13.93;2.17;;;7.00;99.90;;;;;;5078509;28;20929;-77
2022/01/06 11:25:38;;;;;;;16.67;2.42;;;7.20;99.90;;;;;;5107583;27;20051;-77
2022/01/06 11:28:08;;;;;;;13.63;2.45;;;7.40;99.90;;;;;;5077363;28;20490;-77
2022/01/06 11:30:46;;;;;;;14.95;2.90;;;7.50;99.90;;;;;;5074477;28;20044;-77
2022/01/06 11:33:14;;;;;;;15.60;3.15;;;7.60;99.90;;;;;;5079368;28;20036;-77
2022/01/06 11:36:16;;;;;;;12.50;3.00;;;7.70;99.90;;;;;;5076347;28;20045;-77
2022/01/06 11:38:47;;;;;;;16.55;2.50;;;7.90;99.90;;;;;;5075097;28;20043;-77
2022/01/06 11:41:13;;;;;;;13.50;2.58;;;8.10;99.90;;;;;;5078896;28;20081;-77
2022/01/06 11:43:41;;;;;;;17.92;3.92;;;8.20;99.90;;;;;;5072555;28;20383;-77
2022/01/06 11:46:08;;;;;;;15.75;4.03;;;8.30;99.90;;;;;;5077145;28;20029;-77
2022/01/06 11:48:45;;;;;;;12.45;2.88;;;8.40;99.90;;;;;;5076026;28;20050;-77
2022/01/06 11:51:32;;;;;;;12.05;2.97;;;8.30;99.90;;;;;;5076005;28;20048;-78
2022/01/06 11:54:10;;;;;;;14.18;2.35;;;8.40;99.90;;;;;;5075419;28;20542;-78
2022/01/06 11:56:44;;;;;;;16.40;3.58;;;8.20;99.90;;;;;;5074231;28;20048;-77
2022/01/06 11:59:10;;;;;;;12.50;2.30;;;8.30;99.90;;;;;;5110580;27;21451;-77
2022/01/06 12:01:46;;;;;;;16.95;4.03;;;8.10;99.90;;;;;;5077851;28;20043;-77
2022/01/06 12:04:22;;;;;;;10.60;2.20;;;8.00;99.90;;;;;;5078245;28;20040;-77
2022/01/06 12:06:49;;;;;;;15.07;2.85;;;8.00;99.90;;;;;;5078346;28;20125;-77
2022/01/06 12:09:23;;;;;;;20.02;3.20;;;8.00;99.90;;;;;;5081973;28;20560;-77
2022/01/06 12:12:05;;;;;;;17.77;3.35;;;8.00;99.90;;;;;;5085348;28;20101;-77
2022/01/06 12:14:31;;;;;;;16.15;2.85;;;8.00;99.90;;;;;;5078021;28;20089;-77
2022/01/06 12:17:08;;;;;;;12.57;2.78;;;8.00;99.90;;;;;;5080874;28;20222;-77
2022/01/06 12:19:35;;;;;;;20.67;3.42;;;8.00;99.90;;;;;;5079861;28;20032;-77
2022/01/06 12:22:01;;;;;;;14.70;3.10;;;7.90;99.90;;;;;;5081978;28;20043;-77
2022/01/06 12:24:27;;;;;;;14.38;4.00;;;7.80;99.90;;;;;;5079244;28;20089;-77
2022/01/06 12:26:54;;;;;;;27.98;4.93;;;7.80;99.90;;;;;;5083978;28;20031;-77
2022/01/06 12:29:26;;;;;;;17.48;4.63;;;7.80;99.90;;;;;;5079182;28;20052;-77
2022/01/06 12:32:02;;;;;;;15.43;4.65;;;7.80;99.90;;;;;;5080659;28;20045;-77
2022/01/06 12:34:27;;;;;;;15.88;4.28;;;7.70;99.90;;;;;;5082165;28;20032;-78
2022/01/06 12:36:53;;;;;;;17.42;4.80;;;7.70;99.90;;;;;;5080294;28;20086;-77
2022/01/06 12:39:21;;;;;;;19.23;5.30;;;7.70;99.90;;;;;;5085445;28;20075;-77
2022/01/06 12:41:49;;;;;;;15.77;5.15;;;7.70;99.90;;;;;;5084498;28;20447;-76
2022/01/06 12:44:20;;;;;;;17.45;4.72;;;7.70;99.90;;;;;;5075684;28;20048;-77
2022/01/06 12:46:46;;;;;;;15.68;4.40;;;7.70;99.90;;;;;;5077760;28;20127;-77
2022/01/06 12:49:12;;;;;;;15.57;3.80;;;7.70;99.90;;;;;;5080625;28;20124;-77
2022/01/06 12:51:45;;;;;;;26.60;4.57;;;7.60;99.90;;;;;;5080388;28;20032;-77
2022/01/06 12:54:22;;;;;;;14.48;4.03;;;7.60;99.90;;;;;;5081947;28;20140;-77
2022/01/06 12:56:58;;;;;;;22.42;4.68;;;7.60;99.90;;;;;;5083298;28;20127;-77
2022/01/06 12:59:32;;;;;;;11.43;3.38;;;7.50;99.90;;;;;;5080477;28;20040;-77